sensor_id;sensor_type;location;lat;lon;timestamp;P1;durP1;ratioP1;P2;durP2;ratioP2
61477;SDS011;47345;52.334;10.392;2022-09-09T00:02:08;2.10;;;1.90;;
61477;SDS011;47345;52.334;10.392;2022-09-09T00:04:48;2.30;;;2.10;;
61477;SDS011;47345;52.334;10.392;2022-09-09T00:07:31;2.10;;;2.00;;
61477;SDS011;47345;52.334;10.392;2022-09-09T00:10:15;4.30;;;2.20;;
61477;SDS011;47345;52.334;10.392;2022-09-09T00:12:53;1.80;;;1.70;;
61477;SDS011;47345;52.334;10.392;2022-09-09T00:15:31;1.60;;;1.50;;
61477;SDS011;47345;52.334;10.392;2022-09-09T00:18:10;1.60;;;1.50;;
61477;SDS011;47345;52.334;10.392;2022-09-09T00:20:52;2.00;;;1.70;;
61477;SDS011;47345;52.334;10.392;2022-09-09T00:23:27;2.30;;;2.00;;
61477;SDS011;47345;52.334;10.392;2022-09-09T00:26:04;1.90;;;1.80;;
61477;SDS011;47345;52.334;10.392;2022-09-09T00:28:45;2.40;;;1.80;;
61477;SDS011;47345;52.334;10.392;2022-09-09T00:31:23;2.00;;;1.60;;
61477;SDS011;47345;52.334;10.392;2022-09-09T00:33:55;3.30;;;1.60;;
61477;SDS011;47345;52.334;10.392;2022-09-09T00:36:40;1.70;;;1.60;;
61477;SDS011;47345;52.334;10.392;2022-09-09T00:39:23;2.20;;;1.50;;
61477;SDS011;47345;52.334;10.392;2022-09-09T00:44:37;1.60;;;1.50;;
61477;SDS011;47345;52.334;10.392;2022-09-09T00:47:20;1.40;;;1.30;;
61477;SDS011;47345;52.334;10.392;2022-09-09T00:50:11;2.10;;;1.50;;
61477;SDS011;47345;52.334;10.392;2022-09-09T00:52:54;1.50;;;1.40;;
61477;SDS011;47345;52.334;10.392;2022-09-09T00:55:36;1.50;;;1.30;;
61477;SDS011;47345;52.334;10.392;2022-09-09T00:58:12;1.70;;;1.60;;
61477;SDS011;47345;52.334;10.392;2022-09-09T01:00:43;2.10;;;1.40;;
61477;SDS011;47345;52.334;10.392;2022-09-09T01:03:20;1.50;;;1.40;;
61477;SDS011;47345;52.334;10.392;2022-09-09T01:06:02;1.80;;;1.70;;
61477;SDS011;47345;52.334;10.392;2022-09-09T01:08:53;1.50;;;1.40;;
61477;SDS011;47345;52.334;10.392;2022-09-09T01:11:51;2.50;;;1.50;;
61477;SDS011;47345;52.334;10.392;2022-09-09T01:14:30;1.40;;;1.30;;
61477;SDS011;47345;52.334;10.392;2022-09-09T01:17:11;1.30;;;1.30;;
61477;SDS011;47345;52.334;10.392;2022-09-09T01:19:52;1.30;;;1.20;;
61477;SDS011;47345;52.334;10.392;2022-09-09T01:22:34;1.50;;;1.40;;
61477;SDS011;47345;52.334;10.392;2022-09-09T01:27:58;1.10;;;1.10;;
61477;SDS011;47345;52.334;10.392;2022-09-09T01:30:31;1.40;;;1.40;;
61477;SDS011;47345;52.334;10.392;2022-09-09T01:33:03;4.60;;;1.30;;
61477;SDS011;47345;52.334;10.392;2022-09-09T01:35:42;1.20;;;1.20;;
61477;SDS011;47345;52.334;10.392;2022-09-09T01:38:16;1.10;;;1.10;;
61477;SDS011;47345;52.334;10.392;2022-09-09T01:40:47;1.10;;;1.10;;
61477;SDS011;47345;52.334;10.392;2022-09-09T01:43:19;1.40;;;1.30;;
61477;SDS011;47345;52.334;10.392;2022-09-09T01:45:52;1.50;;;1.40;;
61477;SDS011;47345;52.334;10.392;2022-09-09T01:48:28;1.70;;;1.20;;
61477;SDS011;47345;52.334;10.392;2022-09-09T01:50:59;1.50;;;1.40;;
61477;SDS011;47345;52.334;10.392;2022-09-09T01:53:29;3.00;;;1.60;;
61477;SDS011;47345;52.334;10.392;2022-09-09T01:56:04;1.60;;;1.50;;
61477;SDS011;47345;52.334;10.392;2022-09-09T01:58:47;2.30;;;1.30;;
61477;SDS011;47345;52.334;10.392;2022-09-09T02:01:30;1.30;;;1.20;;
61477;SDS011;47345;52.334;10.392;2022-09-09T02:04:13;1.50;;;1.40;;
61477;SDS011;47345;52.334;10.392;2022-09-09T02:06:54;1.40;;;1.30;;
61477;SDS011;47345;52.334;10.392;2022-09-09T02:09:26;3.90;;;1.60;;
61477;SDS011;47345;52.334;10.392;2022-09-09T02:11:59;1.50;;;1.40;;
61477;SDS011;47345;52.334;10.392;2022-09-09T02:14:38;1.50;;;1.40;;
61477;SDS011;47345;52.334;10.392;2022-09-09T02:17:16;1.50;;;1.40;;
61477;SDS011;47345;52.334;10.392;2022-09-09T02:19:52;1.20;;;1.20;;
61477;SDS011;47345;52.334;10.392;2022-09-09T02:22:28;1.80;;;1.70;;
61477;SDS011;47345;52.334;10.392;2022-09-09T02:25:03;1.50;;;1.40;;
61477;SDS011;47345;52.334;10.392;2022-09-09T02:27:37;1.40;;;1.30;;
61477;SDS011;47345;52.334;10.392;2022-09-09T02:30:09;2.70;;;1.30;;
61477;SDS011;47345;52.334;10.392;2022-09-09T02:32:42;1.40;;;1.30;;
61477;SDS011;47345;52.334;10.392;2022-09-09T02:35:15;1.50;;;1.40;;
61477;SDS011;47345;52.334;10.392;2022-09-09T02:37:49;1.40;;;1.30;;
61477;SDS011;47345;52.334;10.392;2022-09-09T02:40:22;1.60;;;1.50;;
61477;SDS011;47345;52.334;10.392;2022-09-09T02:42:53;1.20;;;1.20;;
61477;SDS011;47345;52.334;10.392;2022-09-09T02:45:25;1.20;;;1.20;;
61477;SDS011;47345;52.334;10.392;2022-09-09T02:48:03;1.30;;;1.30;;
61477;SDS011;47345;52.334;10.392;2022-09-09T02:50:43;1.40;;;1.30;;
61477;SDS011;47345;52.334;10.392;2022-09-09T02:53:24;1.30;;;1.30;;
61477;SDS011;47345;52.334;10.392;2022-09-09T02:56:05;1.40;;;1.40;;
61477;SDS011;47345;52.334;10.392;2022-09-09T02:58:43;1.40;;;1.30;;
61477;SDS011;47345;52.334;10.392;2022-09-09T03:01:14;1.30;;;1.20;;
61477;SDS011;47345;52.334;10.392;2022-09-09T03:03:45;1.50;;;1.40;;
61477;SDS011;47345;52.334;10.392;2022-09-09T03:06:16;1.60;;;1.40;;
61477;SDS011;47345;52.334;10.392;2022-09-09T03:08:47;1.40;;;1.30;;
61477;SDS011;47345;52.334;10.392;2022-09-09T03:11:17;1.40;;;1.30;;
61477;SDS011;47345;52.334;10.392;2022-09-09T03:13:47;1.30;;;1.30;;
61477;SDS011;47345;52.334;10.392;2022-09-09T03:16:19;1.30;;;1.30;;
61477;SDS011;47345;52.334;10.392;2022-09-09T03:18:50;1.60;;;1.50;;
61477;SDS011;47345;52.334;10.392;2022-09-09T03:21:20;1.40;;;1.30;;
61477;SDS011;47345;52.334;10.392;2022-09-09T03:23:51;1.70;;;1.60;;
61477;SDS011;47345;52.334;10.392;2022-09-09T03:26:21;2.10;;;1.70;;
61477;SDS011;47345;52.334;10.392;2022-09-09T03:28:52;1.50;;;1.40;;
61477;SDS011;47345;52.334;10.392;2022-09-09T03:31:23;1.50;;;1.40;;
61477;SDS011;47345;52.334;10.392;2022-09-09T03:33:53;1.90;;;1.40;;
61477;SDS011;47345;52.334;10.392;2022-09-09T03:36:25;1.50;;;1.50;;
61477;SDS011;47345;52.334;10.392;2022-09-09T03:38:56;1.40;;;1.30;;
61477;SDS011;47345;52.334;10.392;2022-09-09T03:41:27;2.70;;;1.80;;
61477;SDS011;47345;52.334;10.392;2022-09-09T03:43:58;1.60;;;1.50;;
61477;SDS011;47345;52.334;10.392;2022-09-09T03:46:28;1.50;;;1.40;;
61477;SDS011;47345;52.334;10.392;2022-09-09T03:48:59;1.40;;;1.30;;
61477;SDS011;47345;52.334;10.392;2022-09-09T03:51:29;2.10;;;1.60;;
61477;SDS011;47345;52.334;10.392;2022-09-09T03:54:03;1.60;;;1.50;;
61477;SDS011;47345;52.334;10.392;2022-09-09T03:56:35;1.80;;;1.70;;
61477;SDS011;47345;52.334;10.392;2022-09-09T03:59:07;1.70;;;1.60;;
61477;SDS011;47345;52.334;10.392;2022-09-09T04:01:37;1.50;;;1.40;;
61477;SDS011;47345;52.334;10.392;2022-09-09T04:04:07;2.30;;;1.50;;
61477;SDS011;47345;52.334;10.392;2022-09-09T04:06:38;2.40;;;1.50;;
61477;SDS011;47345;52.334;10.392;2022-09-09T04:09:08;1.80;;;1.60;;
61477;SDS011;47345;52.334;10.392;2022-09-09T04:11:38;1.30;;;1.30;;
61477;SDS011;47345;52.334;10.392;2022-09-09T04:14:09;1.40;;;1.30;;
61477;SDS011;47345;52.334;10.392;2022-09-09T04:16:40;1.60;;;1.50;;
61477;SDS011;47345;52.334;10.392;2022-09-09T04:19:12;1.60;;;1.50;;
61477;SDS011;47345;52.334;10.392;2022-09-09T04:21:43;1.70;;;1.50;;
61477;SDS011;47345;52.334;10.392;2022-09-09T04:24:13;1.80;;;1.60;;
61477;SDS011;47345;52.334;10.392;2022-09-09T04:26:44;2.40;;;1.50;;
61477;SDS011;47345;52.334;10.392;2022-09-09T04:29:14;1.50;;;1.40;;
61477;SDS011;47345;52.334;10.392;2022-09-09T04:31:44;1.60;;;1.50;;
61477;SDS011;47345;52.334;10.392;2022-09-09T04:34:15;2.50;;;1.70;;
61477;SDS011;47345;52.334;10.392;2022-09-09T04:36:45;6.20;;;2.30;;
61477;SDS011;47345;52.334;10.392;2022-09-09T04:39:15;2.40;;;2.00;;
61477;SDS011;47345;52.334;10.392;2022-09-09T04:41:47;3.30;;;2.30;;
61477;SDS011;47345;52.334;10.392;2022-09-09T04:44:18;1.80;;;1.70;;
61477;SDS011;47345;52.334;10.392;2022-09-09T04:46:48;1.80;;;1.60;;
61477;SDS011;47345;52.334;10.392;2022-09-09T04:49:18;1.60;;;1.50;;
61477;SDS011;47345;52.334;10.392;2022-09-09T04:51:49;1.50;;;1.40;;
61477;SDS011;47345;52.334;10.392;2022-09-09T04:54:20;4.10;;;1.70;;
61477;SDS011;47345;52.334;10.392;2022-09-09T04:56:50;1.60;;;1.50;;
61477;SDS011;47345;52.334;10.392;2022-09-09T04:59:22;4.90;;;2.10;;
61477;SDS011;47345;52.334;10.392;2022-09-09T05:01:52;3.10;;;1.70;;
61477;SDS011;47345;52.334;10.392;2022-09-09T05:04:23;2.20;;;1.80;;
61477;SDS011;47345;52.334;10.392;2022-09-09T05:06:53;3.80;;;2.70;;
61477;SDS011;47345;52.334;10.392;2022-09-09T05:09:24;2.20;;;1.90;;
61477;SDS011;47345;52.334;10.392;2022-09-09T05:11:54;2.60;;;1.60;;
61477;SDS011;47345;52.334;10.392;2022-09-09T05:14:24;1.80;;;1.60;;
61477;SDS011;47345;52.334;10.392;2022-09-09T05:16:55;2.60;;;1.50;;
61477;SDS011;47345;52.334;10.392;2022-09-09T05:19:25;3.00;;;1.60;;
61477;SDS011;47345;52.334;10.392;2022-09-09T05:21:55;1.60;;;1.50;;
61477;SDS011;47345;52.334;10.392;2022-09-09T05:24:26;1.50;;;1.40;;
61477;SDS011;47345;52.334;10.392;2022-09-09T05:26:57;1.80;;;1.70;;
61477;SDS011;47345;52.334;10.392;2022-09-09T05:29:29;1.80;;;1.70;;
61477;SDS011;47345;52.334;10.392;2022-09-09T05:32:01;2.50;;;1.90;;
61477;SDS011;47345;52.334;10.392;2022-09-09T05:34:32;6.30;;;2.40;;
61477;SDS011;47345;52.334;10.392;2022-09-09T05:37:02;4.00;;;2.50;;
61477;SDS011;47345;52.334;10.392;2022-09-09T05:39:34;8.60;;;5.60;;
61477;SDS011;47345;52.334;10.392;2022-09-09T05:42:05;9.60;;;4.30;;
61477;SDS011;47345;52.334;10.392;2022-09-09T05:44:36;4.80;;;3.00;;
61477;SDS011;47345;52.334;10.392;2022-09-09T05:47:06;8.90;;;3.40;;
61477;SDS011;47345;52.334;10.392;2022-09-09T05:53:07;5.60;;;3.80;;
61477;SDS011;47345;52.334;10.392;2022-09-09T05:55:37;9.60;;;3.90;;
61477;SDS011;47345;52.334;10.392;2022-09-09T05:58:08;5.60;;;3.70;;
61477;SDS011;47345;52.334;10.392;2022-09-09T06:00:38;7.60;;;3.80;;
61477;SDS011;47345;52.334;10.392;2022-09-09T06:03:09;7.70;;;4.40;;
61477;SDS011;47345;52.334;10.392;2022-09-09T06:05:41;7.60;;;4.50;;
61477;SDS011;47345;52.334;10.392;2022-09-09T06:08:11;7.30;;;3.70;;
61477;SDS011;47345;52.334;10.392;2022-09-09T06:10:42;10.30;;;4.00;;
61477;SDS011;47345;52.334;10.392;2022-09-09T06:13:12;11.50;;;4.10;;
61477;SDS011;47345;52.334;10.392;2022-09-09T06:15:50;8.20;;;3.40;;
61477;SDS011;47345;52.334;10.392;2022-09-09T06:18:20;11.70;;;3.80;;
61477;SDS011;47345;52.334;10.392;2022-09-09T06:20:54;5.60;;;3.30;;
61477;SDS011;47345;52.334;10.392;2022-09-09T06:23:26;5.10;;;3.50;;
61477;SDS011;47345;52.334;10.392;2022-09-09T06:26:04;8.70;;;3.10;;
61477;SDS011;47345;52.334;10.392;2022-09-09T06:28:38;5.00;;;2.60;;
61477;SDS011;47345;52.334;10.392;2022-09-09T06:31:14;8.00;;;2.90;;
61477;SDS011;47345;52.334;10.392;2022-09-09T06:33:54;6.30;;;2.60;;
61477;SDS011;47345;52.334;10.392;2022-09-09T06:36:26;5.20;;;2.50;;
61477;SDS011;47345;52.334;10.392;2022-09-09T06:38:58;2.60;;;2.10;;
61477;SDS011;47345;52.334;10.392;2022-09-09T06:41:30;2.90;;;1.60;;
61477;SDS011;47345;52.334;10.392;2022-09-09T06:44:01;7.80;;;1.70;;
61477;SDS011;47345;52.334;10.392;2022-09-09T06:46:32;5.90;;;1.80;;
61477;SDS011;47345;52.334;10.392;2022-09-09T06:49:03;1.30;;;1.20;;
61477;SDS011;47345;52.334;10.392;2022-09-09T06:51:34;1.50;;;1.40;;
61477;SDS011;47345;52.334;10.392;2022-09-09T06:54:10;2.20;;;1.70;;
61477;SDS011;47345;52.334;10.392;2022-09-09T06:56:42;3.80;;;1.60;;
61477;SDS011;47345;52.334;10.392;2022-09-09T06:59:13;3.60;;;1.50;;
61477;SDS011;47345;52.334;10.392;2022-09-09T07:01:43;1.30;;;1.20;;
61477;SDS011;47345;52.334;10.392;2022-09-09T07:04:18;5.70;;;1.70;;
61477;SDS011;47345;52.334;10.392;2022-09-09T07:06:49;1.60;;;1.50;;
61477;SDS011;47345;52.334;10.392;2022-09-09T07:09:20;1.50;;;1.40;;
61477;SDS011;47345;52.334;10.392;2022-09-09T07:11:51;2.60;;;1.50;;
61477;SDS011;47345;52.334;10.392;2022-09-09T07:14:21;3.90;;;1.40;;
61477;SDS011;47345;52.334;10.392;2022-09-09T07:16:52;1.80;;;1.30;;
61477;SDS011;47345;52.334;10.392;2022-09-09T07:19:26;3.00;;;1.40;;
61477;SDS011;47345;52.334;10.392;2022-09-09T07:21:56;1.50;;;1.20;;
61477;SDS011;47345;52.334;10.392;2022-09-09T07:24:26;3.40;;;1.50;;
61477;SDS011;47345;52.334;10.392;2022-09-09T07:26:57;1.50;;;1.30;;
61477;SDS011;47345;52.334;10.392;2022-09-09T07:29:28;4.20;;;1.50;;
61477;SDS011;47345;52.334;10.392;2022-09-09T07:31:58;3.20;;;1.40;;
61477;SDS011;47345;52.334;10.392;2022-09-09T07:34:30;1.70;;;1.40;;
61477;SDS011;47345;52.334;10.392;2022-09-09T07:37:00;3.70;;;1.40;;
61477;SDS011;47345;52.334;10.392;2022-09-09T07:39:30;2.20;;;1.50;;
61477;SDS011;47345;52.334;10.392;2022-09-09T07:42:01;5.40;;;2.00;;
61477;SDS011;47345;52.334;10.392;2022-09-09T07:44:32;1.50;;;1.40;;
61477;SDS011;47345;52.334;10.392;2022-09-09T07:47:03;2.10;;;1.50;;
61477;SDS011;47345;52.334;10.392;2022-09-09T07:49:33;3.40;;;1.40;;
61477;SDS011;47345;52.334;10.392;2022-09-09T07:52:04;2.10;;;1.30;;
61477;SDS011;47345;52.334;10.392;2022-09-09T07:54:39;6.70;;;2.50;;
61477;SDS011;47345;52.334;10.392;2022-09-09T07:57:09;2.10;;;1.50;;
61477;SDS011;47345;52.334;10.392;2022-09-09T07:59:40;3.50;;;1.50;;
61477;SDS011;47345;52.334;10.392;2022-09-09T08:02:10;3.90;;;1.40;;
61477;SDS011;47345;52.334;10.392;2022-09-09T08:04:40;1.30;;;1.20;;
61477;SDS011;47345;52.334;10.392;2022-09-09T08:07:10;2.00;;;1.60;;
61477;SDS011;47345;52.334;10.392;2022-09-09T08:09:41;3.20;;;1.40;;
61477;SDS011;47345;52.334;10.392;2022-09-09T08:12:11;1.50;;;1.40;;
61477;SDS011;47345;52.334;10.392;2022-09-09T08:14:42;1.70;;;1.60;;
61477;SDS011;47345;52.334;10.392;2022-09-09T08:17:12;1.70;;;1.40;;
61477;SDS011;47345;52.334;10.392;2022-09-09T08:19:42;2.00;;;1.30;;
61477;SDS011;47345;52.334;10.392;2022-09-09T08:22:13;1.20;;;1.20;;
61477;SDS011;47345;52.334;10.392;2022-09-09T08:24:44;1.40;;;1.30;;
61477;SDS011;47345;52.334;10.392;2022-09-09T08:27:14;3.40;;;1.70;;
61477;SDS011;47345;52.334;10.392;2022-09-09T08:29:44;2.10;;;1.40;;
61477;SDS011;47345;52.334;10.392;2022-09-09T08:32:15;1.40;;;1.30;;
61477;SDS011;47345;52.334;10.392;2022-09-09T08:34:46;4.20;;;1.60;;
61477;SDS011;47345;52.334;10.392;2022-09-09T08:37:21;1.50;;;1.40;;
61477;SDS011;47345;52.334;10.392;2022-09-09T08:39:51;1.60;;;1.40;;
61477;SDS011;47345;52.334;10.392;2022-09-09T08:42:33;2.70;;;1.40;;
61477;SDS011;47345;52.334;10.392;2022-09-09T08:45:14;4.00;;;1.80;;
61477;SDS011;47345;52.334;10.392;2022-09-09T08:47:57;1.50;;;1.40;;
61477;SDS011;47345;52.334;10.392;2022-09-09T08:50:38;4.60;;;1.80;;
61477;SDS011;47345;52.334;10.392;2022-09-09T08:53:12;1.40;;;1.30;;
61477;SDS011;47345;52.334;10.392;2022-09-09T08:55:48;2.80;;;1.60;;
61477;SDS011;47345;52.334;10.392;2022-09-09T08:58:23;1.70;;;1.30;;
61477;SDS011;47345;52.334;10.392;2022-09-09T09:01:00;2.40;;;1.50;;
61477;SDS011;47345;52.334;10.392;2022-09-09T09:03:46;2.40;;;1.30;;
61477;SDS011;47345;52.334;10.392;2022-09-09T09:06:26;2.40;;;1.30;;
61477;SDS011;47345;52.334;10.392;2022-09-09T09:09:16;5.30;;;2.90;;
61477;SDS011;47345;52.334;10.392;2022-09-09T09:11:52;3.50;;;2.90;;
61477;SDS011;47345;52.334;10.392;2022-09-09T09:14:28;4.40;;;1.70;;
61477;SDS011;47345;52.334;10.392;2022-09-09T09:17:03;2.00;;;1.30;;
61477;SDS011;47345;52.334;10.392;2022-09-09T09:19:35;1.50;;;1.40;;
61477;SDS011;47345;52.334;10.392;2022-09-09T09:22:13;2.30;;;1.40;;
61477;SDS011;47345;52.334;10.392;2022-09-09T09:24:51;2.80;;;1.60;;
61477;SDS011;47345;52.334;10.392;2022-09-09T09:27:30;3.10;;;1.30;;
61477;SDS011;47345;52.334;10.392;2022-09-09T09:30:05;3.40;;;1.60;;
61477;SDS011;47345;52.334;10.392;2022-09-09T09:32:55;2.50;;;1.40;;
61477;SDS011;47345;52.334;10.392;2022-09-09T09:35:28;1.40;;;1.30;;
61477;SDS011;47345;52.334;10.392;2022-09-09T09:37:58;2.40;;;1.40;;
61477;SDS011;47345;52.334;10.392;2022-09-09T09:40:50;4.20;;;1.40;;
61477;SDS011;47345;52.334;10.392;2022-09-09T09:43:26;1.30;;;1.20;;
61477;SDS011;47345;52.334;10.392;2022-09-09T09:45:58;2.00;;;1.40;;
61477;SDS011;47345;52.334;10.392;2022-09-09T09:48:44;2.40;;;1.60;;
61477;SDS011;47345;52.334;10.392;2022-09-09T09:51:24;7.40;;;3.20;;
61477;SDS011;47345;52.334;10.392;2022-09-09T09:54:03;2.40;;;1.40;;
61477;SDS011;47345;52.334;10.392;2022-09-09T09:56:46;1.40;;;1.30;;
61477;SDS011;47345;52.334;10.392;2022-09-09T09:59:24;2.10;;;1.50;;
61477;SDS011;47345;52.334;10.392;2022-09-09T10:02:10;8.00;;;5.50;;
61477;SDS011;47345;52.334;10.392;2022-09-09T10:04:45;2.30;;;1.70;;
61477;SDS011;47345;52.334;10.392;2022-09-09T10:07:18;1.70;;;1.30;;
61477;SDS011;47345;52.334;10.392;2022-09-09T10:09:52;1.50;;;1.30;;
61477;SDS011;47345;52.334;10.392;2022-09-09T10:12:26;1.30;;;1.20;;
61477;SDS011;47345;52.334;10.392;2022-09-09T10:15:05;1.60;;;1.10;;
61477;SDS011;47345;52.334;10.392;2022-09-09T10:17:49;1.90;;;1.30;;
61477;SDS011;47345;52.334;10.392;2022-09-09T10:20:31;1.80;;;1.10;;
61477;SDS011;47345;52.334;10.392;2022-09-09T10:23:14;1.40;;;1.10;;
61477;SDS011;47345;52.334;10.392;2022-09-09T10:26:08;1.40;;;1.20;;
61477;SDS011;47345;52.334;10.392;2022-09-09T10:29:14;4.30;;;1.60;;
61477;SDS011;47345;52.334;10.392;2022-09-09T10:31:57;1.70;;;1.20;;
61477;SDS011;47345;52.334;10.392;2022-09-09T10:34:41;1.30;;;1.20;;
61477;SDS011;47345;52.334;10.392;2022-09-09T10:37:27;2.10;;;1.10;;
61477;SDS011;47345;52.334;10.392;2022-09-09T10:40:17;2.70;;;1.20;;
61477;SDS011;47345;52.334;10.392;2022-09-09T10:42:55;7.90;;;1.40;;
61477;SDS011;47345;52.334;10.392;2022-09-09T10:45:34;2.70;;;1.30;;
61477;SDS011;47345;52.334;10.392;2022-09-09T10:48:18;1.60;;;1.30;;
61477;SDS011;47345;52.334;10.392;2022-09-09T10:51:15;1.70;;;1.40;;
61477;SDS011;47345;52.334;10.392;2022-09-09T10:54:01;2.20;;;1.40;;
61477;SDS011;47345;52.334;10.392;2022-09-09T10:56:42;3.40;;;1.30;;
61477;SDS011;47345;52.334;10.392;2022-09-09T10:59:22;2.30;;;1.30;;
61477;SDS011;47345;52.334;10.392;2022-09-09T11:01:56;1.30;;;1.20;;
61477;SDS011;47345;52.334;10.392;2022-09-09T11:04:38;2.80;;;1.40;;
61477;SDS011;47345;52.334;10.392;2022-09-09T11:07:16;1.60;;;1.40;;
61477;SDS011;47345;52.334;10.392;2022-09-09T11:09:54;1.10;;;1.10;;
61477;SDS011;47345;52.334;10.392;2022-09-09T11:12:30;1.90;;;1.20;;
61477;SDS011;47345;52.334;10.392;2022-09-09T11:15:06;1.70;;;1.40;;
61477;SDS011;47345;52.334;10.392;2022-09-09T11:17:44;3.40;;;1.30;;
61477;SDS011;47345;52.334;10.392;2022-09-09T11:20:16;3.00;;;1.50;;
61477;SDS011;47345;52.334;10.392;2022-09-09T11:22:48;1.70;;;1.30;;
61477;SDS011;47345;52.334;10.392;2022-09-09T11:27:59;1.50;;;1.30;;
61477;SDS011;47345;52.334;10.392;2022-09-09T11:30:45;5.80;;;1.20;;
61477;SDS011;47345;52.334;10.392;2022-09-09T11:33:41;3.40;;;1.40;;
61477;SDS011;47345;52.334;10.392;2022-09-09T11:36:41;3.10;;;1.50;;
61477;SDS011;47345;52.334;10.392;2022-09-09T11:42:33;1.20;;;1.10;;
61477;SDS011;47345;52.334;10.392;2022-09-09T11:45:20;2.30;;;1.20;;
61477;SDS011;47345;52.334;10.392;2022-09-09T11:47:54;1.70;;;1.00;;
61477;SDS011;47345;52.334;10.392;2022-09-09T11:50:29;3.00;;;1.10;;
61477;SDS011;47345;52.334;10.392;2022-09-09T11:53:14;1.50;;;1.20;;
61477;SDS011;47345;52.334;10.392;2022-09-09T11:58:43;1.50;;;1.20;;
61477;SDS011;47345;52.334;10.392;2022-09-09T12:01:28;2.10;;;1.60;;
61477;SDS011;47345;52.334;10.392;2022-09-09T12:04:13;4.00;;;1.50;;
61477;SDS011;47345;52.334;10.392;2022-09-09T12:06:50;1.10;;;1.00;;
61477;SDS011;47345;52.334;10.392;2022-09-09T12:09:24;1.40;;;1.30;;
61477;SDS011;47345;52.334;10.392;2022-09-09T12:12:06;3.90;;;1.20;;
61477;SDS011;47345;52.334;10.392;2022-09-09T12:14:56;2.10;;;1.20;;
61477;SDS011;47345;52.334;10.392;2022-09-09T12:17:29;2.30;;;1.20;;
61477;SDS011;47345;52.334;10.392;2022-09-09T12:20:11;1.20;;;1.10;;
61477;SDS011;47345;52.334;10.392;2022-09-09T12:25:51;1.10;;;1.10;;
61477;SDS011;47345;52.334;10.392;2022-09-09T12:28:37;1.60;;;1.20;;
61477;SDS011;47345;52.334;10.392;2022-09-09T12:31:17;2.70;;;0.90;;
61477;SDS011;47345;52.334;10.392;2022-09-09T12:33:53;0.90;;;0.80;;
61477;SDS011;47345;52.334;10.392;2022-09-09T12:36:24;2.50;;;0.80;;
61477;SDS011;47345;52.334;10.392;2022-09-09T12:38:59;1.60;;;0.90;;
61477;SDS011;47345;52.334;10.392;2022-09-09T12:41:51;1.80;;;0.70;;
61477;SDS011;47345;52.334;10.392;2022-09-09T12:44:24;3.00;;;1.30;;
61477;SDS011;47345;52.334;10.392;2022-09-09T12:46:56;1.10;;;1.10;;
61477;SDS011;47345;52.334;10.392;2022-09-09T12:49:31;1.20;;;1.10;;
61477;SDS011;47345;52.334;10.392;2022-09-09T12:52:04;1.80;;;1.00;;
61477;SDS011;47345;52.334;10.392;2022-09-09T12:54:43;5.60;;;0.90;;
61477;SDS011;47345;52.334;10.392;2022-09-09T12:57:15;0.80;;;0.70;;
61477;SDS011;47345;52.334;10.392;2022-09-09T12:59:46;1.20;;;0.80;;
61477;SDS011;47345;52.334;10.392;2022-09-09T13:02:20;2.00;;;1.00;;
61477;SDS011;47345;52.334;10.392;2022-09-09T13:04:53;1.70;;;1.30;;
61477;SDS011;47345;52.334;10.392;2022-09-09T13:07:34;2.20;;;1.80;;
61477;SDS011;47345;52.334;10.392;2022-09-09T13:10:05;3.00;;;1.30;;
61477;SDS011;47345;52.334;10.392;2022-09-09T13:12:47;1.20;;;1.10;;
61477;SDS011;47345;52.334;10.392;2022-09-09T13:15:20;2.20;;;1.10;;
61477;SDS011;47345;52.334;10.392;2022-09-09T13:17:54;2.60;;;1.40;;
61477;SDS011;47345;52.334;10.392;2022-09-09T13:20:28;2.80;;;1.10;;
61477;SDS011;47345;52.334;10.392;2022-09-09T13:22:59;1.40;;;0.80;;
61477;SDS011;47345;52.334;10.392;2022-09-09T13:25:29;1.40;;;0.90;;
61477;SDS011;47345;52.334;10.392;2022-09-09T13:28:18;1.30;;;0.80;;
61477;SDS011;47345;52.334;10.392;2022-09-09T13:30:58;0.90;;;0.90;;
61477;SDS011;47345;52.334;10.392;2022-09-09T13:33:31;3.00;;;1.20;;
61477;SDS011;47345;52.334;10.392;2022-09-09T13:36:05;1.80;;;1.20;;
61477;SDS011;47345;52.334;10.392;2022-09-09T13:38:38;1.80;;;1.10;;
61477;SDS011;47345;52.334;10.392;2022-09-09T13:41:22;1.70;;;0.80;;
61477;SDS011;47345;52.334;10.392;2022-09-09T13:43:54;3.40;;;1.10;;
61477;SDS011;47345;52.334;10.392;2022-09-09T13:46:31;2.10;;;1.20;;
61477;SDS011;47345;52.334;10.392;2022-09-09T13:49:18;0.80;;;0.80;;
61477;SDS011;47345;52.334;10.392;2022-09-09T13:51:51;1.30;;;1.20;;
61477;SDS011;47345;52.334;10.392;2022-09-09T13:54:31;0.80;;;0.80;;
61477;SDS011;47345;52.334;10.392;2022-09-09T13:57:02;2.60;;;0.90;;
61477;SDS011;47345;52.334;10.392;2022-09-09T13:59:33;3.20;;;1.00;;
61477;SDS011;47345;52.334;10.392;2022-09-09T14:02:24;1.50;;;1.30;;
61477;SDS011;47345;52.334;10.392;2022-09-09T14:04:55;1.50;;;1.20;;
61477;SDS011;47345;52.334;10.392;2022-09-09T14:07:25;1.40;;;1.10;;
61477;SDS011;47345;52.334;10.392;2022-09-09T14:09:56;2.00;;;1.10;;
61477;SDS011;47345;52.334;10.392;2022-09-09T14:12:27;2.90;;;1.10;;
61477;SDS011;47345;52.334;10.392;2022-09-09T14:14:58;5.00;;;1.30;;
61477;SDS011;47345;52.334;10.392;2022-09-09T14:17:28;4.70;;;1.10;;
61477;SDS011;47345;52.334;10.392;2022-09-09T14:19:58;1.40;;;1.10;;
61477;SDS011;47345;52.334;10.392;2022-09-09T14:22:29;4.60;;;1.30;;
61477;SDS011;47345;52.334;10.392;2022-09-09T14:24:59;1.90;;;1.40;;
61477;SDS011;47345;52.334;10.392;2022-09-09T14:27:29;2.40;;;1.80;;
61477;SDS011;47345;52.334;10.392;2022-09-09T14:30:00;2.80;;;1.70;;
61477;SDS011;47345;52.334;10.392;2022-09-09T14:32:31;2.70;;;1.50;;
61477;SDS011;47345;52.334;10.392;2022-09-09T14:35:02;3.70;;;1.40;;
61477;SDS011;47345;52.334;10.392;2022-09-09T14:37:33;2.80;;;1.40;;
61477;SDS011;47345;52.334;10.392;2022-09-09T14:40:04;1.80;;;1.40;;
61477;SDS011;47345;52.334;10.392;2022-09-09T14:42:36;1.30;;;1.20;;
61477;SDS011;47345;52.334;10.392;2022-09-09T14:45:08;1.90;;;1.20;;
61477;SDS011;47345;52.334;10.392;2022-09-09T14:47:39;3.00;;;1.40;;
61477;SDS011;47345;52.334;10.392;2022-09-09T14:50:09;1.50;;;1.20;;
61477;SDS011;47345;52.334;10.392;2022-09-09T14:52:41;4.20;;;1.40;;
61477;SDS011;47345;52.334;10.392;2022-09-09T14:55:11;4.30;;;1.30;;
61477;SDS011;47345;52.334;10.392;2022-09-09T14:57:42;4.00;;;1.50;;
61477;SDS011;47345;52.334;10.392;2022-09-09T15:00:14;2.80;;;1.40;;
61477;SDS011;47345;52.334;10.392;2022-09-09T15:02:44;1.70;;;1.30;;
61477;SDS011;47345;52.334;10.392;2022-09-09T15:05:15;2.00;;;1.50;;
61477;SDS011;47345;52.334;10.392;2022-09-09T15:07:46;2.40;;;1.20;;
61477;SDS011;47345;52.334;10.392;2022-09-09T15:10:17;4.40;;;0.90;;
61477;SDS011;47345;52.334;10.392;2022-09-09T15:12:48;2.30;;;1.30;;
61477;SDS011;47345;52.334;10.392;2022-09-09T15:15:18;3.50;;;1.50;;
61477;SDS011;47345;52.334;10.392;2022-09-09T15:17:48;1.30;;;1.30;;
61477;SDS011;47345;52.334;10.392;2022-09-09T15:20:19;2.80;;;1.40;;
61477;SDS011;47345;52.334;10.392;2022-09-09T15:22:49;2.10;;;1.20;;
61477;SDS011;47345;52.334;10.392;2022-09-09T15:25:20;2.70;;;1.40;;
61477;SDS011;47345;52.334;10.392;2022-09-09T15:27:50;1.00;;;1.00;;
61477;SDS011;47345;52.334;10.392;2022-09-09T15:30:20;1.40;;;1.30;;
61477;SDS011;47345;52.334;10.392;2022-09-09T15:32:51;4.90;;;1.50;;
61477;SDS011;47345;52.334;10.392;2022-09-09T15:35:22;2.10;;;1.60;;
61477;SDS011;47345;52.334;10.392;2022-09-09T15:37:52;1.50;;;1.00;;
61477;SDS011;47345;52.334;10.392;2022-09-09T15:40:24;1.60;;;1.10;;